createdAt,value
2023-01-07T00:02:14.793Z,10.66
2023-01-07T00:07:06.582Z,10.68
2023-01-07T00:11:58.224Z,10.71
2023-01-07T00:16:50.060Z,10.70
2023-01-07T00:21:42.607Z,10.73
2023-01-07T00:26:36.363Z,10.74
2023-01-07T00:31:34.553Z,10.76
2023-01-07T00:36:32.028Z,10.77
2023-01-07T00:41:24.242Z,10.78
2023-01-07T00:46:16.156Z,10.77
2023-01-07T00:51:10.992Z,10.79
2023-01-07T00:56:02.673Z,10.82
2023-01-07T01:00:56.542Z,10.83
2023-01-07T01:05:48.334Z,10.81
2023-01-07T01:10:39.966Z,10.78
2023-01-07T01:15:31.923Z,10.80
2023-01-07T01:20:23.671Z,10.82
2023-01-07T01:25:15.500Z,10.84
2023-01-07T01:30:08.159Z,10.86
2023-01-07T01:34:59.853Z,10.85
2023-01-07T01:39:51.514Z,10.81
2023-01-07T01:44:48.941Z,10.80
2023-01-07T01:49:47.902Z,10.75
2023-01-07T01:54:43.401Z,10.72
2023-01-07T01:59:39.573Z,10.70
2023-01-07T02:04:31.822Z,10.68
2023-01-07T02:09:23.879Z,10.64
2023-01-07T02:14:49.396Z,10.62
2023-01-07T02:20:12.964Z,10.60
2023-01-07T02:25:26.194Z,10.56
2023-01-07T02:31:03.380Z,10.52
2023-01-07T02:36:10.179Z,10.52
2023-01-07T02:41:18.130Z,10.51
2023-01-07T02:46:26.957Z,10.49
2023-01-07T02:51:19.073Z,10.46
2023-01-07T02:56:41.836Z,10.45
2023-01-07T03:01:34.226Z,10.44
2023-01-07T03:06:54.732Z,10.44
2023-01-07T03:11:55.301Z,10.46
2023-01-07T03:16:57.543Z,10.48
2023-01-07T03:21:50.318Z,10.51
2023-01-07T03:26:49.017Z,10.57
2023-01-07T03:31:51.538Z,10.60
2023-01-07T03:36:49.232Z,10.66
2023-01-07T03:41:59.775Z,10.66
2023-01-07T03:46:53.239Z,10.66
2023-01-07T03:51:46.094Z,10.68
2023-01-07T03:56:37.783Z,10.67
2023-01-07T04:01:30.730Z,10.62
2023-01-07T04:06:22.583Z,10.60
2023-01-07T04:11:14.235Z,10.59
2023-01-07T04:16:06.159Z,10.59
2023-01-07T04:20:57.817Z,10.59
2023-01-07T04:25:49.987Z,10.61
2023-01-07T04:30:42.180Z,10.60
2023-01-07T04:35:34.304Z,10.62
2023-01-07T04:40:26.635Z,10.60
2023-01-07T04:45:18.482Z,10.60
2023-01-07T04:50:10.263Z,10.54
2023-01-07T04:55:01.892Z,10.57
2023-01-07T04:59:53.595Z,10.56
2023-01-07T05:04:45.484Z,10.58
2023-01-07T05:09:37.300Z,10.54
2023-01-07T05:14:28.959Z,10.51
2023-01-07T05:19:21.876Z,10.47
2023-01-07T05:24:13.836Z,10.47
2023-01-07T05:29:05.612Z,10.47
2023-01-07T05:33:57.279Z,10.45
2023-01-07T05:38:48.921Z,10.44
2023-01-07T05:43:40.604Z,10.43
2023-01-07T05:48:32.367Z,10.42
2023-01-07T05:53:24.185Z,10.43
2023-01-07T05:58:15.938Z,10.43
2023-01-07T06:03:07.712Z,10.43
2023-01-07T06:07:59.401Z,10.43
2023-01-07T06:12:51.500Z,10.42
2023-01-07T06:17:43.163Z,10.38
2023-01-07T06:22:35.318Z,10.36
2023-01-07T06:27:26.947Z,10.37
2023-01-07T06:32:18.671Z,10.31
2023-01-07T06:37:10.446Z,10.30
2023-01-07T06:42:02.235Z,10.27
2023-01-07T06:46:53.828Z,10.21
2023-01-07T06:51:45.486Z,10.20
2023-01-07T06:56:37.184Z,10.16
2023-01-07T07:01:29.050Z,10.13
2023-01-07T07:06:20.833Z,10.11
2023-01-07T07:11:12.533Z,10.10
2023-01-07T07:16:04.513Z,10.06
2023-01-07T07:20:56.868Z,10.04
2023-01-07T07:25:48.453Z,9.98
2023-01-07T07:30:46.762Z,9.96
2023-01-07T07:35:39.864Z,9.93
2023-01-07T07:40:31.547Z,9.93
2023-01-07T07:45:23.268Z,9.89
2023-01-07T07:50:15.018Z,9.90
2023-01-07T07:55:20.149Z,9.90
2023-01-07T08:00:17.883Z,9.90
2023-01-07T08:05:11.606Z,9.90
2023-01-07T08:10:03.831Z,9.91
2023-01-07T08:14:55.499Z,9.93
2023-01-07T08:19:47.238Z,9.93
2023-01-07T08:24:38.893Z,9.95
2023-01-07T08:29:30.953Z,9.94
2023-01-07T08:34:24.934Z,9.90
2023-01-07T08:39:16.804Z,9.89
2023-01-07T08:44:08.469Z,9.85
2023-01-07T08:49:00.718Z,9.82
2023-01-07T08:53:52.335Z,9.79
2023-01-07T08:58:43.972Z,9.75
2023-01-07T09:03:35.673Z,9.73
2023-01-07T09:08:27.347Z,9.74
2023-01-07T09:13:19.157Z,9.73
2023-01-07T09:18:10.845Z,9.75
2023-01-07T09:23:02.507Z,9.73
2023-01-07T09:27:54.220Z,9.75
2023-01-07T09:32:45.945Z,9.76
2023-01-07T09:37:37.755Z,9.79
2023-01-07T09:42:55.111Z,9.81
2023-01-07T09:47:53.752Z,9.78
2023-01-07T09:52:50.940Z,9.81
2023-01-07T09:57:42.860Z,9.76
2023-01-07T10:02:50.134Z,9.70
2023-01-07T10:08:31.413Z,9.68
2023-01-07T10:13:42.322Z,9.72
2023-01-07T10:18:36.648Z,9.73
2023-01-07T10:23:37.837Z,9.78
2023-01-07T10:29:11.029Z,9.83
2023-01-07T10:34:03.300Z,9.89
2023-01-07T10:39:23.004Z,9.92
2023-01-07T10:44:23.899Z,9.91
2023-01-07T10:49:23.068Z,9.90
2023-01-07T10:54:52.444Z,9.88
2023-01-07T10:59:50.725Z,9.82
2023-01-07T11:04:42.455Z,9.79
2023-01-07T11:09:40.033Z,9.77
2023-01-07T11:14:36.475Z,9.81
2023-01-07T11:19:49.370Z,9.90
2023-01-07T11:24:41.018Z,10.12
2023-01-07T11:29:38.994Z,10.46
2023-01-07T11:34:35.306Z,10.66
2023-01-07T11:39:29.784Z,10.86
2023-01-07T11:44:22.175Z,11.08
2023-01-07T11:49:30.394Z,11.25
2023-01-07T11:54:25.521Z,11.28
2023-01-07T11:59:19.992Z,11.31
2023-01-07T12:04:19.126Z,11.28
2023-01-07T12:09:32.535Z,11.27
2023-01-07T12:14:24.177Z,11.28
2023-01-07T12:19:44.247Z,11.29
2023-01-07T12:24:38.636Z,11.23
2023-01-07T12:29:54.658Z,11.17
2023-01-07T12:34:58.018Z,11.13
2023-01-07T12:40:23.444Z,11.16
2023-01-07T12:45:21.877Z,11.13
2023-01-07T12:50:16.311Z,11.12
2023-01-07T12:55:17.337Z,11.13
2023-01-07T13:00:26.661Z,11.07
2023-01-07T13:05:25.928Z,11.05
2023-01-07T13:10:34.707Z,11.04
2023-01-07T13:15:35.872Z,10.99
2023-01-07T13:20:36.729Z,10.92
2023-01-07T13:25:43.159Z,10.86
2023-01-07T13:31:26.223Z,10.78
2023-01-07T13:36:45.359Z,10.66
2023-01-07T13:41:55.500Z,10.54
2023-01-07T13:46:47.924Z,10.45
2023-01-07T13:51:39.818Z,10.39
2023-01-07T13:56:38.474Z,10.29
2023-01-07T14:01:32.968Z,10.18
2023-01-07T14:06:27.435Z,10.12
2023-01-07T14:11:39.033Z,10.04
2023-01-07T14:16:40.704Z,10.00
2023-01-07T14:21:55.601Z,9.98
2023-01-07T14:27:24.879Z,9.96
2023-01-07T14:32:33.031Z,9.86
2023-01-07T14:37:32.682Z,9.81
2023-01-07T14:42:27.693Z,9.76
2023-01-07T14:47:41.068Z,9.78
2023-01-07T14:53:14.727Z,9.75
2023-01-07T14:58:16.407Z,9.64
2023-01-07T15:03:13.953Z,9.60
2023-01-07T15:08:28.061Z,9.56
2023-01-07T15:13:40.173Z,9.50
2023-01-07T15:18:42.789Z,9.44
2023-01-07T15:23:53.838Z,9.39
2023-01-07T15:28:57.575Z,9.34
2023-01-07T15:33:55.944Z,9.29
2023-01-07T15:38:56.026Z,9.24
2023-01-07T15:43:47.838Z,9.21
2023-01-07T15:48:39.512Z,9.18
2023-01-07T15:53:32.161Z,9.13
2023-01-07T15:58:35.234Z,9.11
2023-01-07T16:03:27.922Z,9.11
2023-01-07T16:08:32.727Z,9.04
2023-01-07T16:13:24.389Z,9.02
2023-01-07T16:18:19.192Z,8.99
2023-01-07T16:23:10.810Z,8.94
2023-01-07T16:28:04.391Z,8.82
2023-01-07T16:32:56.826Z,8.67
2023-01-07T16:37:49.289Z,8.57
2023-01-07T16:42:48.294Z,8.46
2023-01-07T16:47:39.925Z,8.32
2023-01-07T16:52:34.465Z,8.16
2023-01-07T16:57:34.187Z,8.04
2023-01-07T17:02:25.809Z,7.94
2023-01-07T17:07:27.066Z,7.82
2023-01-07T17:12:40.211Z,7.63
2023-01-07T17:17:33.942Z,7.55
2023-01-07T17:22:31.499Z,7.50
2023-01-07T17:27:27.500Z,7.45
2023-01-07T17:32:19.716Z,7.45
2023-01-07T17:37:16.031Z,7.45
2023-01-07T17:42:48.037Z,7.42
2023-01-07T17:47:40.237Z,7.29
2023-01-07T17:52:32.000Z,7.23
2023-01-07T17:57:23.725Z,7.22
2023-01-07T18:02:20.541Z,7.13
2023-01-07T18:07:16.639Z,7.06
2023-01-07T18:12:35.073Z,6.99
2023-01-07T18:17:27.747Z,6.87
2023-01-07T18:22:21.121Z,6.77
2023-01-07T18:27:17.485Z,6.62
2023-01-07T18:32:09.886Z,6.50
2023-01-07T18:37:02.505Z,6.40
2023-01-07T18:41:54.442Z,6.28
2023-01-07T18:46:46.455Z,6.21
2023-01-07T18:51:38.448Z,6.19
2023-01-07T18:56:30.510Z,6.12
2023-01-07T19:01:23.017Z,6.06
2023-01-07T19:06:15.836Z,6.03
2023-01-07T19:11:09.235Z,6.00
2023-01-07T19:16:01.688Z,5.95
2023-01-07T19:20:53.411Z,5.98
2023-01-07T19:25:51.974Z,5.92
2023-01-07T19:30:43.813Z,5.87
2023-01-07T19:35:35.511Z,5.78
2023-01-07T19:40:27.311Z,5.76
2023-01-07T19:45:19.090Z,5.73
2023-01-07T19:50:11.379Z,5.73
2023-01-07T19:55:03.173Z,5.72
2023-01-07T19:59:54.859Z,5.75
2023-01-07T20:04:46.587Z,5.77
2023-01-07T20:09:38.347Z,5.79
2023-01-07T20:14:30.634Z,5.81
2023-01-07T20:19:23.459Z,5.80
2023-01-07T20:24:15.613Z,5.80
2023-01-07T20:29:07.829Z,5.81
2023-01-07T20:34:00.843Z,5.81
2023-01-07T20:38:52.730Z,5.74
2023-01-07T20:43:44.479Z,5.73
2023-01-07T20:48:37.004Z,5.69
2023-01-07T20:53:29.769Z,5.68
2023-01-07T20:58:21.614Z,5.67
2023-01-07T21:03:13.264Z,5.64
2023-01-07T21:08:05.058Z,5.69
2023-01-07T21:12:56.723Z,5.69
2023-01-07T21:17:49.174Z,5.69
2023-01-07T21:22:41.840Z,5.68
2023-01-07T21:27:33.602Z,5.67
2023-01-07T21:32:25.327Z,5.69
2023-01-07T21:37:17.172Z,5.69
2023-01-07T21:42:09.435Z,5.76
2023-01-07T21:47:01.292Z,5.76
2023-01-07T21:51:53.293Z,5.76
2023-01-07T21:56:45.199Z,5.76
2023-01-07T22:01:37.316Z,5.74
2023-01-07T22:06:32.237Z,5.78
2023-01-07T22:11:25.823Z,5.81
2023-01-07T22:16:18.304Z,5.85
2023-01-07T22:21:10.418Z,5.88
2023-01-07T22:26:04.984Z,5.91
2023-01-07T22:31:00.028Z,5.94
2023-01-07T22:35:53.427Z,5.98
2023-01-07T22:40:45.510Z,6.05
2023-01-07T22:45:55.691Z,6.15
2023-01-07T22:50:47.817Z,6.19
2023-01-07T22:55:40.941Z,6.17
2023-01-07T23:00:48.260Z,6.07
2023-01-07T23:05:40.132Z,6.05
2023-01-07T23:10:32.249Z,6.01
2023-01-07T23:15:24.429Z,6.00
2023-01-07T23:20:16.418Z,6.03
2023-01-07T23:25:08.630Z,6.16
2023-01-07T23:30:00.379Z,6.28
2023-01-07T23:34:52.186Z,6.31
2023-01-07T23:39:44.027Z,6.26
2023-01-07T23:44:35.911Z,6.27
2023-01-07T23:49:27.586Z,6.28
2023-01-07T23:54:19.394Z,6.32
2023-01-07T23:59:11.410Z,6.33
